Camden, IL (62319)

9:46 PM CDT on August 30, 2016 (GMT -0500)
Augusta | | Change Station
Active Advisory: Flood Warning

Elev 682 ft 40.23 °N, 90.95 °W | Updated 12 minutes ago

Clear
Clear
72.7 °F
Feels Like 71 °F
N
0.0
Wind Variable Wind from SSW

Today
High -- | Low -- °F
--% Chance of Precip.
Yesterday
High -- | Low -- °F
Precip. -- in
Pressure 30.11 in
Visibility 7.0 miles
Clouds Clear
Heat Index 71 °F
Dew Point 69 °F
Humidity 88%
Rainfall 0.63 in
Snow Depth Not available.
6:29 AM 7:36 PM
Waning Crescent, 2% visible
METAR KMQB 310235Z AUTO 29004KT 7SM CLR 22/21 A3011 RMK AO2 T02150210
Pressure 30.11 in
Visibility 7.0 miles
Clouds Clear
Heat Index 71 °F
Dew Point 69 °F
Humidity 88%
Rainfall 0.63 in
Snow Depth Not available.
6:29 AM 7:36 PM
Waning Crescent, 2% visible
METAR KMQB 310235Z AUTO 29004KT 7SM CLR 22/21 A3011 RMK AO2 T02150210

10-Day Weather Forecast

Almanac

Astronomy

Aug. 30, 2016 Rise Set
Actual Time
Civil Twilight
Nautical Twilight
Astronomical Twilight
Moon
Length of Visible Light
Length of Day
Tomorrow will be .
, % of the Moon is Illuminated

Today's Extremes

State Highs State Lows

Community

WunderPhotos

Upload Photos

1,936,002 photos uploaded!

WunderBlog® & News

Nearby

Air Quality

  Air Quality AQ Index Pollutant
Not available.

Snow Depth

Station Depth Elevation

Earthquake Activity

City Distance Mag. Time & Date
Minimum magnitude displayed is 2.5.

Coastal Water Temperatures

Place Temperature

Stations

Nearby Weather Stations

Station Location Temp. Windchill Dew Point Humidity Wind Precip. Elev Updated Type
                   

Watches & Warnings

Flood Warning
Issued: 8:35 PM CDT Aug. 30, 2016 – National Weather Service

The Flood Warning continues for
the Illinois River at Beardstown.
* From Wednesday evening until further notice.
* At 745 PM Tuesday the stage was 13.4 feet.
* Flood stage is 14.0 feet.
* Minor flooding is forecast.
* Forecast... rise above flood stage by tomorrow evening and continue
to rise to near 15.8 feet by Sunday evening.
* Impact... at 14.4 feet... seepage problems begin in the Coal Creek
drainage and levee district.



                  Fld observed forecast 6am
location stg stg day time Wed Thu Fri

Illinois River
Beardstown 14 13.4 Tue 8 PM 13.7 14.3 14.8



Lat... Lon 4018 9023 4012 9017 4008 9037 3999 9046
      3999 9058 4015 9043